createdAt,value
2019-05-20T00:02:24.370Z,71.20
2019-05-20T00:04:52.565Z,73.80
2019-05-20T00:07:24.098Z,73.00
2019-05-20T00:09:56.053Z,72.70
2019-05-20T00:12:27.787Z,72.30
2019-05-20T00:15:00.811Z,73.70
2019-05-20T00:17:33.152Z,75.20
2019-05-20T00:20:05.816Z,74.50
2019-05-20T00:22:35.968Z,71.80
2019-05-20T00:25:13.833Z,70.20
2019-05-20T00:27:45.936Z,70.50
2019-05-20T00:30:15.735Z,69.80
2019-05-20T00:32:58.134Z,70.80
2019-05-20T00:35:28.962Z,72.30
2019-05-20T00:38:01.784Z,69.20
2019-05-20T00:40:38.420Z,68.50
2019-05-20T00:43:08.972Z,73.10
2019-05-20T00:45:38.698Z,72.50
2019-05-20T00:48:11.114Z,69.40
2019-05-20T00:50:40.860Z,69.60
2019-05-20T00:53:10.471Z,71.90
2019-05-20T00:55:44.236Z,71.40
2019-05-20T00:58:14.055Z,70.70
2019-05-20T01:00:43.394Z,73.10
2019-05-20T01:03:14.808Z,70.40
2019-05-20T01:05:44.141Z,69.80
2019-05-20T01:08:13.410Z,73.30
2019-05-20T01:10:47.457Z,70.00
2019-05-20T01:13:18.484Z,71.80
2019-05-20T01:15:50.353Z,73.50
2019-05-20T01:18:20.652Z,75.60
2019-05-20T01:20:50.105Z,71.30
2019-05-20T01:23:19.304Z,71.60
2019-05-20T01:25:57.358Z,70.30
2019-05-20T01:28:26.909Z,71.40
2019-05-20T01:30:56.325Z,70.30
2019-05-20T01:33:26.080Z,71.80
2019-05-20T01:35:55.343Z,72.30
2019-05-20T01:38:24.482Z,73.30
2019-05-20T01:40:55.574Z,70.40
2019-05-20T01:43:25.917Z,71.60
2019-05-20T01:45:55.949Z,71.70
2019-05-20T01:48:27.529Z,69.40
2019-05-20T01:50:59.344Z,73.00
2019-05-20T01:53:34.157Z,71.40
2019-05-20T01:56:05.683Z,73.80
2019-05-20T01:58:35.204Z,71.60
2019-05-20T02:01:06.092Z,72.20
2019-05-20T02:03:36.649Z,72.60
2019-05-20T02:06:05.846Z,72.50
2019-05-20T02:08:40.483Z,70.80
2019-05-20T02:11:09.690Z,73.60
2019-05-20T02:13:56.558Z,73.10
2019-05-20T02:16:46.404Z,74.40
2019-05-20T02:19:16.621Z,72.00
2019-05-20T02:21:46.667Z,74.00
2019-05-20T02:24:21.997Z,73.80
2019-05-20T02:26:53.618Z,73.70
2019-05-20T02:29:24.540Z,72.90
2019-05-20T02:31:55.890Z,73.50
2019-05-20T02:34:28.417Z,72.00
2019-05-20T02:36:59.547Z,73.10
2019-05-20T02:39:29.097Z,73.40
2019-05-20T02:42:03.189Z,71.70
2019-05-20T02:44:43.115Z,73.20
2019-05-20T02:47:12.294Z,72.30
2019-05-20T02:49:44.202Z,71.50
2019-05-20T02:52:13.493Z,72.20
2019-05-20T02:54:43.089Z,71.50
2019-05-20T02:57:13.984Z,72.40
2019-05-20T02:59:45.356Z,72.80
2019-05-20T03:02:14.618Z,74.20
2019-05-20T03:04:48.821Z,72.80
2019-05-20T03:07:18.113Z,73.10
2019-05-20T03:09:47.243Z,69.80
2019-05-20T03:12:19.106Z,72.00
2019-05-20T03:14:48.881Z,74.50
2019-05-20T03:17:18.099Z,72.30
2019-05-20T03:19:47.932Z,73.10
2019-05-20T03:22:17.980Z,72.70
2019-05-20T03:24:49.325Z,72.50
2019-05-20T03:27:22.032Z,70.70
2019-05-20T03:29:55.886Z,69.80
2019-05-20T03:32:25.417Z,70.70
2019-05-20T03:35:00.094Z,71.70
2019-05-20T03:37:28.163Z,71.00
2019-05-20T03:39:59.666Z,71.20
2019-05-20T03:42:29.037Z,73.60
2019-05-20T03:45:00.001Z,73.40
2019-05-20T03:47:30.778Z,71.70
2019-05-20T03:50:02.783Z,71.60
2019-05-20T03:52:34.058Z,69.80
2019-05-20T03:55:05.099Z,70.10
2019-05-20T03:57:38.379Z,72.30
2019-05-20T04:00:09.912Z,73.30
2019-05-20T04:02:39.525Z,73.40
2019-05-20T04:05:14.366Z,72.20
2019-05-20T04:07:47.957Z,73.20
2019-05-20T04:10:17.777Z,71.90
2019-05-20T04:12:47.397Z,72.70
2019-05-20T04:15:17.817Z,72.00
2019-05-20T04:17:47.230Z,72.00
2019-05-20T04:20:16.758Z,72.20
2019-05-20T04:22:50.631Z,73.10
2019-05-20T04:25:21.340Z,71.90
2019-05-20T04:27:54.358Z,73.30
2019-05-20T04:30:23.533Z,73.20
2019-05-20T04:32:53.888Z,72.50
2019-05-20T04:35:26.526Z,72.50
2019-05-20T04:37:57.946Z,70.90
2019-05-20T04:40:30.431Z,74.30
2019-05-20T04:42:59.735Z,73.80
2019-05-20T04:45:28.894Z,73.90
2019-05-20T04:47:59.545Z,74.50
2019-05-20T04:50:31.369Z,73.30
2019-05-20T04:53:04.553Z,72.00
2019-05-20T04:55:33.692Z,72.30
2019-05-20T04:58:06.628Z,73.90
2019-05-20T05:01:00.830Z,74.20
2019-05-20T05:03:31.261Z,75.50
2019-05-20T05:06:00.477Z,77.10
2019-05-20T05:08:29.832Z,77.50
2019-05-20T05:11:01.735Z,74.20
2019-05-20T05:13:31.952Z,76.60
2019-05-20T05:16:01.218Z,77.60
2019-05-20T05:18:30.345Z,77.20
2019-05-20T05:21:00.028Z,75.10
2019-05-20T05:23:29.242Z,76.00
2019-05-20T05:25:58.437Z,75.10
2019-05-20T05:28:27.702Z,74.00
2019-05-20T05:30:56.922Z,73.50
2019-05-20T05:33:26.045Z,74.00
2019-05-20T05:35:55.161Z,77.10
2019-05-20T05:38:24.347Z,75.20
2019-05-20T05:40:53.452Z,74.50
2019-05-20T05:43:22.568Z,76.20
2019-05-20T05:45:51.725Z,73.80
2019-05-20T05:48:20.854Z,74.70
2019-05-20T05:50:49.972Z,76.00
2019-05-20T05:53:19.101Z,77.70
2019-05-20T05:55:48.310Z,76.70
2019-05-20T05:58:17.415Z,76.00
2019-05-20T06:00:46.712Z,76.30
2019-05-20T06:03:16.021Z,77.00
2019-05-20T06:05:45.186Z,75.60
2019-05-20T06:08:14.576Z,77.30
2019-05-20T06:10:43.692Z,76.30
2019-05-20T06:13:12.815Z,73.60
2019-05-20T06:15:41.947Z,72.30
2019-05-20T06:18:11.091Z,77.10
2019-05-20T06:20:40.308Z,78.70
2019-05-20T06:23:09.582Z,76.10
2019-05-20T06:25:38.878Z,75.40
2019-05-20T06:28:08.129Z,74.80
2019-05-20T06:30:45.047Z,74.20
2019-05-20T06:33:14.270Z,74.10
2019-05-20T06:35:43.465Z,73.90
2019-05-20T06:38:31.794Z,73.90
2019-05-20T06:41:00.922Z,74.40
2019-05-20T06:43:30.072Z,76.00
2019-05-20T06:45:59.260Z,75.00
2019-05-20T06:48:28.544Z,75.10
2019-05-20T06:50:57.645Z,72.50
2019-05-20T06:53:27.127Z,72.80
2019-05-20T06:55:56.553Z,72.70
2019-05-20T06:58:25.726Z,74.50
2019-05-20T07:00:54.865Z,75.90
2019-05-20T07:03:23.955Z,73.70
2019-05-20T07:05:53.117Z,73.10
2019-05-20T07:08:22.269Z,74.70
2019-05-20T07:10:51.457Z,74.20
2019-05-20T07:13:20.718Z,74.20
2019-05-20T07:15:49.893Z,75.10
2019-05-20T07:18:19.208Z,74.10
2019-05-20T07:20:48.348Z,74.90
2019-05-20T07:23:17.550Z,75.50
2019-05-20T07:25:46.675Z,73.80
2019-05-20T07:28:15.843Z,72.90
2019-05-20T07:30:45.083Z,74.40
2019-05-20T07:33:14.227Z,75.40
2019-05-20T07:35:43.445Z,73.30
2019-05-20T07:38:12.501Z,74.70
2019-05-20T07:40:41.675Z,74.20
2019-05-20T07:43:10.853Z,73.70
2019-05-20T07:45:40.111Z,73.40
2019-05-20T07:48:09.298Z,75.10
2019-05-20T07:50:39.943Z,74.60
2019-05-20T07:53:11.564Z,75.40
2019-05-20T07:55:47.250Z,75.30
2019-05-20T07:58:18.637Z,74.10
2019-05-20T08:00:48.098Z,75.60
2019-05-20T08:03:17.265Z,75.70
2019-05-20T08:05:46.388Z,75.40
2019-05-20T08:08:15.528Z,74.80
2019-05-20T08:10:44.688Z,74.00
2019-05-20T08:13:15.086Z,76.00
2019-05-20T08:15:44.254Z,76.20
2019-05-20T08:18:13.352Z,76.90
2019-05-20T08:20:42.566Z,76.40
2019-05-20T08:23:11.762Z,76.70
2019-05-20T08:25:40.894Z,77.00
2019-05-20T08:28:10.022Z,76.60
2019-05-20T08:30:39.783Z,75.80
2019-05-20T08:33:08.957Z,76.60
2019-05-20T08:35:38.379Z,76.00
2019-05-20T08:38:07.690Z,77.10
2019-05-20T08:40:36.795Z,76.70
2019-05-20T08:43:05.961Z,74.70
2019-05-20T08:45:42.891Z,76.00
2019-05-20T08:48:12.070Z,76.40
2019-05-20T08:50:41.325Z,77.40
2019-05-20T08:53:10.474Z,77.20
2019-05-20T08:55:48.065Z,78.40
2019-05-20T08:58:17.210Z,78.50
2019-05-20T09:00:46.385Z,76.90
2019-05-20T09:03:15.518Z,76.80
2019-05-20T09:05:44.709Z,77.10
2019-05-20T09:08:13.806Z,77.10
2019-05-20T09:10:42.916Z,77.10
2019-05-20T09:13:12.382Z,77.10
2019-05-20T09:15:41.478Z,77.10
2019-05-20T09:18:10.624Z,76.10
2019-05-20T09:20:40.030Z,75.70
2019-05-20T09:23:09.191Z,75.50
2019-05-20T09:25:44.285Z,75.90
2019-05-20T09:28:13.399Z,75.50
2019-05-20T09:30:42.907Z,75.10
2019-05-20T09:33:12.078Z,75.80
2019-05-20T09:35:41.461Z,76.10
2019-05-20T09:38:19.966Z,75.80
2019-05-20T09:40:44.552Z,75.80
2019-05-20T09:43:13.691Z,74.90
2019-05-20T09:45:43.545Z,74.00
2019-05-20T09:48:13.422Z,73.50
2019-05-20T09:50:42.557Z,73.90
2019-05-20T09:53:12.654Z,74.90
2019-05-20T09:55:41.843Z,75.10
2019-05-20T09:58:11.070Z,75.50
2019-05-20T10:00:40.356Z,74.70
2019-05-20T10:03:09.531Z,74.40
2019-05-20T10:05:38.628Z,73.60
2019-05-20T10:08:07.756Z,73.80
2019-05-20T10:10:37.357Z,74.00
2019-05-20T10:13:07.457Z,73.50
2019-05-20T10:15:37.353Z,73.00
2019-05-20T10:18:06.506Z,73.50
2019-05-20T10:20:35.749Z,72.90
2019-05-20T10:23:04.968Z,73.00
2019-05-20T10:25:34.195Z,72.80
2019-05-20T10:28:03.339Z,72.90
2019-05-20T10:30:34.715Z,72.60
2019-05-20T10:33:09.463Z,73.20
2019-05-20T10:35:34.719Z,73.70
2019-05-20T10:38:03.865Z,73.20
2019-05-20T10:40:33.210Z,72.80
2019-05-20T10:43:02.399Z,73.30
2019-05-20T10:45:31.514Z,73.40
2019-05-20T10:48:00.733Z,73.40
2019-05-20T10:50:29.874Z,72.60
2019-05-20T10:52:59.000Z,73.50
2019-05-20T10:55:28.175Z,74.00
2019-05-20T10:57:57.310Z,74.40
2019-05-20T11:00:26.530Z,74.30
2019-05-20T11:02:55.686Z,74.10
2019-05-20T11:05:24.873Z,74.40
2019-05-20T11:07:54.028Z,73.80
2019-05-20T11:10:23.217Z,72.90
2019-05-20T11:12:52.311Z,73.00
2019-05-20T11:15:22.399Z,72.60
2019-05-20T11:17:51.711Z,72.20
2019-05-20T11:20:20.890Z,72.10
2019-05-20T11:22:50.036Z,71.80
2019-05-20T11:25:19.499Z,71.80
2019-05-20T11:27:48.756Z,71.30
2019-05-20T11:30:17.949Z,71.70
2019-05-20T11:32:47.094Z,71.90
2019-05-20T11:35:16.944Z,71.00
2019-05-20T11:37:46.051Z,70.80
2019-05-20T11:40:15.596Z,70.80
2019-05-20T11:42:44.825Z,71.30
2019-05-20T11:45:15.614Z,71.80
2019-05-20T11:47:44.864Z,71.00
2019-05-20T11:50:15.774Z,70.60
2019-05-20T11:52:45.077Z,72.10
2019-05-20T11:55:14.321Z,72.40
2019-05-20T11:57:43.481Z,72.50
2019-05-20T12:00:13.110Z,71.70
2019-05-20T12:02:42.340Z,72.20
2019-05-20T12:05:12.831Z,72.10
2019-05-20T12:07:42.107Z,72.20
2019-05-20T12:10:11.960Z,72.60
2019-05-20T12:12:41.092Z,72.60
2019-05-20T12:15:10.976Z,72.20
2019-05-20T12:17:40.154Z,72.20
2019-05-20T12:20:12.013Z,73.40
2019-05-20T12:22:41.265Z,73.20
2019-05-20T12:25:12.352Z,72.10
2019-05-20T12:27:41.558Z,72.80
2019-05-20T12:30:11.148Z,71.60
2019-05-20T12:32:40.416Z,72.00
2019-05-20T12:35:09.669Z,71.90
2019-05-20T12:37:39.015Z,71.70
2019-05-20T12:40:08.973Z,71.30
2019-05-20T12:42:38.412Z,71.00
2019-05-20T12:45:08.330Z,70.60
2019-05-20T12:47:38.631Z,71.30
2019-05-20T12:50:09.362Z,70.50
2019-05-20T12:52:38.513Z,70.30
2019-05-20T12:55:09.832Z,69.60
2019-05-20T12:57:42.306Z,69.70
2019-05-20T13:00:12.646Z,70.30
2019-05-20T13:02:42.626Z,70.60
2019-05-20T13:05:12.080Z,70.00
2019-05-20T13:07:41.291Z,69.80
2019-05-20T13:10:28.188Z,70.80
2019-05-20T13:12:43.371Z,71.00
2019-05-20T13:15:12.898Z,70.70
2019-05-20T13:17:44.907Z,71.50
2019-05-20T13:20:13.384Z,70.70
2019-05-20T13:22:44.955Z,71.30
2019-05-20T13:25:15.893Z,71.00
2019-05-20T13:27:45.257Z,71.00
2019-05-20T13:30:14.988Z,71.00
2019-05-20T13:32:44.165Z,70.80
2019-05-20T13:35:13.780Z,71.30
2019-05-20T13:37:43.030Z,71.50
2019-05-20T13:40:12.357Z,71.80
2019-05-20T13:42:41.512Z,72.00
2019-05-20T13:45:10.737Z,70.90
2019-05-20T13:47:39.985Z,71.10
2019-05-20T13:50:09.890Z,71.90
2019-05-20T13:52:39.106Z,71.80
2019-05-20T13:55:08.531Z,71.10
2019-05-20T13:57:37.827Z,70.80
2019-05-20T14:00:07.461Z,70.70
2019-05-20T14:02:36.607Z,70.40
2019-05-20T14:05:07.348Z,70.70
2019-05-20T14:07:36.542Z,71.20
2019-05-20T14:10:07.521Z,70.80
2019-05-20T14:12:36.845Z,71.30
2019-05-20T14:15:06.397Z,71.50
2019-05-20T14:17:35.771Z,72.00
2019-05-20T14:20:05.405Z,72.60
2019-05-20T14:22:34.584Z,73.00
2019-05-20T14:25:03.861Z,73.30
2019-05-20T14:27:33.103Z,74.00
2019-05-20T14:30:02.930Z,74.20
2019-05-20T14:32:32.429Z,75.00
2019-05-20T14:35:01.564Z,74.80
2019-05-20T14:37:30.783Z,75.60
2019-05-20T14:39:59.941Z,75.60
2019-05-20T14:42:29.125Z,74.10
2019-05-20T14:44:58.381Z,74.90
2019-05-20T14:47:27.639Z,75.70
2019-05-20T14:49:56.756Z,75.50
2019-05-20T14:52:25.904Z,74.40
2019-05-20T14:54:55.100Z,74.80
2019-05-20T14:57:24.333Z,75.10
2019-05-20T14:59:53.495Z,75.10
2019-05-20T15:02:22.751Z,74.50
2019-05-20T15:04:51.875Z,74.40
2019-05-20T15:07:30.085Z,73.60
2019-05-20T15:09:52.105Z,73.30
2019-05-20T15:12:21.428Z,73.10
2019-05-20T15:14:50.582Z,73.40
2019-05-20T15:17:19.789Z,73.80
2019-05-20T15:19:50.125Z,73.80
2019-05-20T15:22:19.238Z,73.80
2019-05-20T15:24:48.626Z,73.80
2019-05-20T15:27:17.808Z,73.60
2019-05-20T15:29:46.935Z,73.80
2019-05-20T15:32:16.198Z,73.80
2019-05-20T15:34:45.362Z,73.50
2019-05-20T15:37:14.708Z,73.00
2019-05-20T15:39:43.973Z,73.20
2019-05-20T15:42:13.195Z,72.80
2019-05-20T15:44:42.579Z,73.10
2019-05-20T15:47:11.757Z,72.90
2019-05-20T15:49:40.997Z,72.20
2019-05-20T15:52:10.266Z,71.70
2019-05-20T15:54:39.512Z,72.10
2019-05-20T15:57:08.770Z,72.10
2019-05-20T15:59:45.958Z,71.60
2019-05-20T16:02:08.930Z,72.10
2019-05-20T16:04:38.976Z,72.00
2019-05-20T16:07:08.135Z,71.70
2019-05-20T16:09:37.391Z,71.50
2019-05-20T16:12:06.597Z,72.10
2019-05-20T16:14:35.816Z,71.50
2019-05-20T16:17:05.118Z,71.70
2019-05-20T16:19:34.464Z,72.10
2019-05-20T16:22:03.733Z,72.10
2019-05-20T16:24:33.950Z,72.50
2019-05-20T16:27:32.804Z,71.70
2019-05-20T16:30:07.373Z,71.90
2019-05-20T16:32:37.910Z,72.00
2019-05-20T16:35:07.823Z,72.10
2019-05-20T16:37:37.084Z,72.20
2019-05-20T16:40:07.344Z,72.30
2019-05-20T16:42:36.460Z,72.40
2019-05-20T16:45:06.774Z,73.10
2019-05-20T16:47:36.093Z,73.40
2019-05-20T16:50:06.824Z,73.60
2019-05-20T16:52:37.201Z,73.20
2019-05-20T16:55:06.937Z,74.50
2019-05-20T16:57:36.189Z,73.10
2019-05-20T17:00:08.583Z,73.60
2019-05-20T17:02:37.702Z,73.50
2019-05-20T17:05:07.171Z,75.10
2019-05-20T17:07:36.369Z,74.40
2019-05-20T17:10:05.926Z,74.50
2019-05-20T17:12:35.079Z,73.80
2019-05-20T17:15:04.473Z,73.70
2019-05-20T17:17:33.696Z,74.00
2019-05-20T17:20:02.865Z,74.70
2019-05-20T17:22:32.379Z,75.30
2019-05-20T17:25:01.707Z,74.40
2019-05-20T17:27:31.034Z,74.50
2019-05-20T17:30:00.256Z,75.30
2019-05-20T17:32:29.513Z,76.90
2019-05-20T17:34:58.701Z,75.60
2019-05-20T17:37:28.068Z,76.00
2019-05-20T17:39:57.510Z,74.70
2019-05-20T17:42:26.730Z,74.70
2019-05-20T17:44:57.856Z,75.40
2019-05-20T17:47:29.488Z,74.60
2019-05-20T17:50:00.002Z,74.40
2019-05-20T17:52:40.432Z,74.90
2019-05-20T17:55:12.241Z,75.70
2019-05-20T17:57:43.681Z,74.80
2019-05-20T18:00:35.668Z,76.40
2019-05-20T18:03:15.193Z,76.40
2019-05-20T18:05:49.637Z,75.30
2019-05-20T18:08:20.304Z,75.40
2019-05-20T18:10:57.304Z,76.90
2019-05-20T18:13:44.253Z,76.60
2019-05-20T18:16:20.049Z,76.60
2019-05-20T18:18:59.025Z,76.70
2019-05-20T18:21:28.900Z,77.20
2019-05-20T18:24:22.141Z,76.80
2019-05-20T18:27:06.942Z,76.90
2019-05-20T18:29:46.213Z,76.40
2019-05-20T18:32:18.600Z,76.20
2019-05-20T18:34:50.583Z,76.40
2019-05-20T18:37:21.159Z,77.50
2019-05-20T18:39:50.838Z,77.30
2019-05-20T18:42:25.209Z,78.60
2019-05-20T18:44:55.705Z,78.60
2019-05-20T18:48:01.064Z,77.00
2019-05-20T18:50:37.218Z,77.20
2019-05-20T18:53:10.701Z,77.30
2019-05-20T18:55:48.211Z,77.00
2019-05-20T18:58:22.931Z,77.70
2019-05-20T19:01:03.956Z,76.60
2019-05-20T19:03:41.555Z,76.60
2019-05-20T19:06:34.012Z,76.10
2019-05-20T19:09:05.707Z,77.30
2019-05-20T19:11:39.285Z,78.30
2019-05-20T19:14:10.561Z,76.70
2019-05-20T19:16:41.848Z,77.80
2019-05-20T19:19:21.145Z,78.10
2019-05-20T19:21:56.275Z,77.90
2019-05-20T19:24:31.286Z,76.20
2019-05-20T19:27:02.723Z,77.50
2019-05-20T19:29:34.601Z,77.60
2019-05-20T19:32:06.385Z,77.50
2019-05-20T19:34:39.743Z,77.80
2019-05-20T19:37:34.008Z,78.80
2019-05-20T19:40:08.679Z,79.30
2019-05-20T19:42:43.010Z,78.80
2019-05-20T19:45:20.394Z,79.50
2019-05-20T19:47:54.971Z,79.60
2019-05-20T19:50:30.404Z,78.60
2019-05-20T19:53:05.869Z,79.30
2019-05-20T19:55:37.011Z,79.10
2019-05-20T19:58:24.904Z,78.70
2019-05-20T20:00:52.521Z,79.80
2019-05-20T20:03:27.665Z,79.30
2019-05-20T20:06:01.446Z,78.70
2019-05-20T20:08:36.905Z,78.90
2019-05-20T20:11:08.257Z,78.70
2019-05-20T20:13:48.847Z,78.70
2019-05-20T20:16:25.889Z,79.10
2019-05-20T20:19:00.688Z,78.00
2019-05-20T20:21:31.065Z,77.70
2019-05-20T20:24:17.905Z,79.20
2019-05-20T20:26:56.273Z,79.50
2019-05-20T20:29:41.344Z,79.90
2019-05-20T20:32:14.811Z,79.80
2019-05-20T20:34:43.965Z,79.70
2019-05-20T20:37:13.591Z,79.50
2019-05-20T20:39:45.421Z,78.90
2019-05-20T20:42:16.333Z,80.50
2019-05-20T20:44:49.111Z,78.80
2019-05-20T20:47:19.624Z,79.70
2019-05-20T20:49:52.404Z,79.10
2019-05-20T20:52:34.047Z,80.10
2019-05-20T20:54:58.886Z,80.10
2019-05-20T20:57:38.371Z,78.80
2019-05-20T21:00:08.846Z,80.60
2019-05-20T21:02:52.770Z,79.90
2019-05-20T21:05:18.393Z,78.10
2019-05-20T21:07:51.307Z,78.90
2019-05-20T21:10:19.293Z,79.80
2019-05-20T21:12:54.321Z,79.30
2019-05-20T21:15:25.428Z,80.30
2019-05-20T21:17:54.708Z,80.80
2019-05-20T21:20:23.932Z,81.70
2019-05-20T21:22:54.161Z,82.30
2019-05-20T21:25:23.845Z,81.40
2019-05-20T21:27:54.911Z,81.10
2019-05-20T21:30:27.870Z,81.80
2019-05-20T21:33:08.691Z,81.10
2019-05-20T21:35:28.017Z,81.60
2019-05-20T21:37:58.029Z,81.20
2019-05-20T21:40:29.359Z,80.90
2019-05-20T21:42:58.817Z,81.60
2019-05-20T21:45:28.095Z,81.40
2019-05-20T21:47:58.492Z,81.10
2019-05-20T21:50:29.909Z,81.10
2019-05-20T21:52:59.274Z,80.30
2019-05-20T21:55:28.662Z,82.60
2019-05-20T21:57:59.772Z,82.20
2019-05-20T22:00:40.176Z,82.80
2019-05-20T22:03:23.609Z,82.00
2019-05-20T22:05:42.283Z,82.00
2019-05-20T22:08:13.074Z,81.20
2019-05-20T22:10:45.787Z,80.90
2019-05-20T22:13:15.496Z,81.00
2019-05-20T22:15:44.909Z,81.10
2019-05-20T22:18:18.652Z,81.30
2019-05-20T22:20:51.004Z,81.90
2019-05-20T22:23:40.788Z,82.50
2019-05-20T22:26:12.789Z,82.60
2019-05-20T22:28:45.252Z,82.70
2019-05-20T22:31:16.300Z,82.20
2019-05-20T22:33:46.391Z,82.00
2019-05-20T22:36:15.808Z,83.60
2019-05-20T22:38:45.110Z,83.10
2019-05-20T22:41:14.845Z,82.80
2019-05-20T22:43:44.641Z,82.80
2019-05-20T22:46:14.298Z,81.80
2019-05-20T22:48:50.431Z,83.60
2019-05-20T22:51:20.077Z,81.40
2019-05-20T22:53:49.899Z,82.50
2019-05-20T22:56:21.029Z,81.80
2019-05-20T22:58:51.942Z,83.00
2019-05-20T23:01:21.703Z,84.30
2019-05-20T23:03:56.355Z,83.20
2019-05-20T23:06:26.040Z,82.70
2019-05-20T23:08:55.816Z,82.90
2019-05-20T23:11:28.120Z,82.50
2019-05-20T23:14:02.236Z,82.70
2019-05-20T23:16:33.793Z,82.90
2019-05-20T23:19:07.816Z,82.60
2019-05-20T23:21:37.219Z,83.10
2019-05-20T23:24:12.115Z,82.70
2019-05-20T23:26:43.735Z,82.40
2019-05-20T23:29:13.167Z,83.80
2019-05-20T23:31:42.977Z,85.00
2019-05-20T23:34:13.410Z,82.30
2019-05-20T23:36:43.567Z,82.80
2019-05-20T23:39:16.896Z,80.60
2019-05-20T23:41:47.745Z,80.50
2019-05-20T23:44:19.217Z,82.00
2019-05-20T23:46:49.320Z,82.50
2019-05-20T23:49:19.085Z,83.00
2019-05-20T23:51:53.183Z,82.00
2019-05-20T23:54:25.447Z,81.90
2019-05-20T23:57:00.489Z,81.50
2019-05-20T23:59:29.874Z,81.40
